sensor_id;sensor_type;location;lat;lon;timestamp;pressure;altitude;pressure_sealevel;temperature;humidity
48790;BME280;41718;51.980;5.734;2023-06-14T00:02:32;101300.25;;;17.42;95.42
48790;BME280;41718;51.980;5.734;2023-06-14T00:07:38;101313.34;;;17.37;95.97
48790;BME280;41718;51.980;5.734;2023-06-14T00:12:43;101315.03;;;17.41;96.54
48790;BME280;41718;51.980;5.734;2023-06-14T00:17:45;101310.78;;;17.31;97.33
48790;BME280;41718;51.980;5.734;2023-06-14T00:22:48;101303.78;;;17.29;98.05
48790;BME280;41718;51.980;5.734;2023-06-14T00:27:50;101309.91;;;17.31;97.67
48790;BME280;41718;51.980;5.734;2023-06-14T00:32:51;101309.06;;;17.22;98.74
48790;BME280;41718;51.980;5.734;2023-06-14T00:37:53;101320.41;;;17.17;99.45
48790;BME280;41718;51.980;5.734;2023-06-14T00:42:56;101312.63;;;17.08;99.71
48790;BME280;41718;51.980;5.734;2023-06-14T00:47:57;101321.41;;;16.96;100.00
48790;BME280;41718;51.980;5.734;2023-06-14T00:53:00;101328.38;;;16.91;100.00
48790;BME280;41718;51.980;5.734;2023-06-14T00:58:02;101322.28;;;16.87;100.00
48790;BME280;41718;51.980;5.734;2023-06-14T01:03:04;101317.97;;;16.80;100.00
48790;BME280;41718;51.980;5.734;2023-06-14T01:08:24;101319.72;;;16.72;100.00
48790;BME280;41718;51.980;5.734;2023-06-14T01:13:33;101319.69;;;16.67;100.00
48790;BME280;41718;51.980;5.734;2023-06-14T01:18:36;101327.53;;;16.69;100.00
48790;BME280;41718;51.980;5.734;2023-06-14T01:23:38;101323.19;;;16.56;100.00
48790;BME280;41718;51.980;5.734;2023-06-14T01:28:39;101321.50;;;16.41;100.00
48790;BME280;41718;51.980;5.734;2023-06-14T01:33:41;101325.00;;;16.29;100.00
48790;BME280;41718;51.980;5.734;2023-06-14T01:38:43;101326.75;;;16.20;100.00
48790;BME280;41718;51.980;5.734;2023-06-14T01:43:45;101327.59;;;16.03;100.00
48790;BME280;41718;51.980;5.734;2023-06-14T01:48:48;101331.09;;;15.98;100.00
48790;BME280;41718;51.980;5.734;2023-06-14T01:53:50;101327.59;;;15.85;100.00
48790;BME280;41718;51.980;5.734;2023-06-14T01:58:51;101318.91;;;15.74;100.00
48790;BME280;41718;51.980;5.734;2023-06-14T02:03:53;101317.97;;;15.58;100.00
48790;BME280;41718;51.980;5.734;2023-06-14T02:08:55;101320.56;;;15.49;100.00
48790;BME280;41718;51.980;5.734;2023-06-14T02:13:56;101324.03;;;15.46;100.00
48790;BME280;41718;51.980;5.734;2023-06-14T02:18:58;101323.13;;;15.35;100.00
48790;BME280;41718;51.980;5.734;2023-06-14T02:23:59;101322.25;;;15.28;100.00
48790;BME280;41718;51.980;5.734;2023-06-14T02:29:03;101315.22;;;15.06;100.00
48790;BME280;41718;51.980;5.734;2023-06-14T02:34:06;101326.47;;;15.00;100.00
48790;BME280;41718;51.980;5.734;2023-06-14T02:39:11;101329.91;;;14.90;100.00
48790;BME280;41718;51.980;5.734;2023-06-14T02:44:14;101328.16;;;14.88;100.00
48790;BME280;41718;51.980;5.734;2023-06-14T02:49:16;101333.28;;;14.74;100.00
48790;BME280;41718;51.980;5.734;2023-06-14T02:54:17;101330.66;;;14.66;100.00
48790;BME280;41718;51.980;5.734;2023-06-14T02:59:19;101334.03;;;14.54;100.00
48790;BME280;41718;51.980;5.734;2023-06-14T03:04:22;101342.75;;;14.61;100.00
48790;BME280;41718;51.980;5.734;2023-06-14T03:09:26;101344.47;;;14.57;100.00
48790;BME280;41718;51.980;5.734;2023-06-14T03:14:29;101340.09;;;14.50;100.00
48790;BME280;41718;51.980;5.734;2023-06-14T03:19:31;101350.38;;;14.38;100.00
48790;BME280;41718;51.980;5.734;2023-06-14T03:24:33;101352.91;;;14.29;100.00
48790;BME280;41718;51.980;5.734;2023-06-14T03:29:38;101360.72;;;14.27;100.00
48790;BME280;41718;51.980;5.734;2023-06-14T03:34:39;101368.50;;;14.24;100.00
48790;BME280;41718;51.980;5.734;2023-06-14T03:39:41;101370.13;;;14.12;100.00
48790;BME280;41718;51.980;5.734;2023-06-14T03:44:47;101371.06;;;14.18;100.00
48790;BME280;41718;51.980;5.734;2023-06-14T03:49:49;101374.53;;;14.19;100.00
48790;BME280;41718;51.980;5.734;2023-06-14T03:54:50;101372.00;;;14.28;100.00
48790;BME280;41718;51.980;5.734;2023-06-14T03:59:55;101384.19;;;14.32;100.00
48790;BME280;41718;51.980;5.734;2023-06-14T04:04:57;101388.38;;;14.16;100.00
48790;BME280;41718;51.980;5.734;2023-06-14T04:10:00;101384.91;;;14.16;100.00
48790;BME280;41718;51.980;5.734;2023-06-14T04:15:02;101383.13;;;14.09;100.00
48790;BME280;41718;51.980;5.734;2023-06-14T04:20:07;101394.47;;;14.18;100.00
48790;BME280;41718;51.980;5.734;2023-06-14T04:25:10;101402.34;;;14.29;100.00
48790;BME280;41718;51.980;5.734;2023-06-14T04:30:13;101405.97;;;14.42;100.00
48790;BME280;41718;51.980;5.734;2023-06-14T04:35:15;101408.72;;;14.62;100.00
48790;BME280;41718;51.980;5.734;2023-06-14T04:40:17;101402.84;;;14.92;100.00
48790;BME280;41718;51.980;5.734;2023-06-14T04:45:19;101406.44;;;15.12;100.00
48790;BME280;41718;51.980;5.734;2023-06-14T04:50:20;101413.47;;;15.31;100.00
48790;BME280;41718;51.980;5.734;2023-06-14T04:55:22;101424.91;;;15.58;100.00
48790;BME280;41718;51.980;5.734;2023-06-14T05:00:23;101421.53;;;15.80;100.00
48790;BME280;41718;51.980;5.734;2023-06-14T05:05:25;101421.56;;;16.03;100.00
48790;BME280;41718;51.980;5.734;2023-06-14T05:10:27;101414.63;;;16.31;100.00
48790;BME280;41718;51.980;5.734;2023-06-14T05:15:29;101419.00;;;16.49;100.00
48790;BME280;41718;51.980;5.734;2023-06-14T05:20:30;101428.56;;;16.70;100.00
48790;BME280;41718;51.980;5.734;2023-06-14T05:25:32;101427.69;;;16.99;100.00
48790;BME280;41718;51.980;5.734;2023-06-14T05:30:34;101433.69;;;17.23;100.00
48790;BME280;41718;51.980;5.734;2023-06-14T05:35:35;101440.59;;;17.54;100.00
48790;BME280;41718;51.980;5.734;2023-06-14T05:40:38;101442.25;;;17.73;100.00
48790;BME280;41718;51.980;5.734;2023-06-14T05:45:40;101433.41;;;17.95;100.00
48790;BME280;41718;51.980;5.734;2023-06-14T05:50:43;101442.63;;;18.51;100.00
48790;BME280;41718;51.980;5.734;2023-06-14T05:55:45;101448.47;;;18.83;100.00
48790;BME280;41718;51.980;5.734;2023-06-14T06:00:47;101449.38;;;18.80;100.00
48790;BME280;41718;51.980;5.734;2023-06-14T06:05:49;101452.44;;;19.22;100.00
48790;BME280;41718;51.980;5.734;2023-06-14T06:10:51;101460.31;;;19.22;100.00
48790;BME280;41718;51.980;5.734;2023-06-14T06:15:52;101464.47;;;19.40;100.00
48790;BME280;41718;51.980;5.734;2023-06-14T06:20:54;101464.19;;;19.67;100.00
48790;BME280;41718;51.980;5.734;2023-06-14T06:25:59;101457.75;;;19.91;100.00
48790;BME280;41718;51.980;5.734;2023-06-14T06:31:00;101454.97;;;20.03;100.00
48790;BME280;41718;51.980;5.734;2023-06-14T06:36:05;101465.41;;;20.06;100.00
48790;BME280;41718;51.980;5.734;2023-06-14T06:41:07;101464.63;;;20.58;99.75
48790;BME280;41718;51.980;5.734;2023-06-14T06:46:08;101474.28;;;20.59;99.33
48790;BME280;41718;51.980;5.734;2023-06-14T06:51:10;101480.56;;;20.99;98.63
48790;BME280;41718;51.980;5.734;2023-06-14T06:56:12;101491.03;;;21.03;96.00
48790;BME280;41718;51.980;5.734;2023-06-14T07:01:14;101494.81;;;20.87;96.33
48790;BME280;41718;51.980;5.734;2023-06-14T07:06:15;101498.88;;;21.06;96.05
48790;BME280;41718;51.980;5.734;2023-06-14T07:11:19;101499.47;;;21.22;94.71
48790;BME280;41718;51.980;5.734;2023-06-14T07:16:21;101506.75;;;21.08;94.26
48790;BME280;41718;51.980;5.734;2023-06-14T07:21:26;101495.16;;;21.64;94.65
48790;BME280;41718;51.980;5.734;2023-06-14T07:26:28;101498.00;;;21.54;93.65
48790;BME280;41718;51.980;5.734;2023-06-14T07:31:29;101502.56;;;21.87;93.40
48790;BME280;41718;51.980;5.734;2023-06-14T07:36:31;101504.06;;;22.39;92.09
48790;BME280;41718;51.980;5.734;2023-06-14T07:41:33;101516.13;;;22.11;90.05
48790;BME280;41718;51.980;5.734;2023-06-14T07:46:34;101517.06;;;22.08;90.53
48790;BME280;41718;51.980;5.734;2023-06-14T07:51:36;101511.59;;;22.19;90.13
48790;BME280;41718;51.980;5.734;2023-06-14T07:56:37;101511.88;;;22.80;89.04
48790;BME280;41718;51.980;5.734;2023-06-14T08:01:39;101520.19;;;22.64;88.97
48790;BME280;41718;51.980;5.734;2023-06-14T08:06:41;101516.31;;;23.13;88.64
48790;BME280;41718;51.980;5.734;2023-06-14T08:11:45;101517.53;;;23.00;86.23
48790;BME280;41718;51.980;5.734;2023-06-14T08:16:47;101508.13;;;22.90;85.23
48790;BME280;41718;51.980;5.734;2023-06-14T08:21:48;101500.28;;;23.21;83.75
48790;BME280;41718;51.980;5.734;2023-06-14T08:26:50;101510.34;;;23.70;82.43
48790;BME280;41718;51.980;5.734;2023-06-14T08:31:52;101516.91;;;23.88;82.45
48790;BME280;41718;51.980;5.734;2023-06-14T08:36:53;101512.97;;;24.84;81.89
48790;BME280;41718;51.980;5.734;2023-06-14T08:41:55;101511.56;;;24.47;80.57
48790;BME280;41718;51.980;5.734;2023-06-14T08:46:59;101510.31;;;24.01;78.36
48790;BME280;41718;51.980;5.734;2023-06-14T08:52:01;101503.41;;;24.53;76.85
48790;BME280;41718;51.980;5.734;2023-06-14T08:57:03;101510.13;;;25.17;76.42
48790;BME280;41718;51.980;5.734;2023-06-14T09:02:08;101500.59;;;25.11;75.67
48790;BME280;41718;51.980;5.734;2023-06-14T09:07:14;101501.44;;;24.60;76.99
48790;BME280;41718;51.980;5.734;2023-06-14T09:12:16;101498.22;;;24.77;70.42
48790;BME280;41718;51.980;5.734;2023-06-14T09:17:18;101491.91;;;24.81;72.07
48790;BME280;41718;51.980;5.734;2023-06-14T09:22:19;101489.13;;;25.35;71.18
48790;BME280;41718;51.980;5.734;2023-06-14T09:27:21;101499.47;;;25.18;72.63
48790;BME280;41718;51.980;5.734;2023-06-14T09:32:23;101503.41;;;25.06;70.54
48790;BME280;41718;51.980;5.734;2023-06-14T09:37:27;101511.81;;;26.58;71.34
48790;BME280;41718;51.980;5.734;2023-06-14T09:42:30;101505.06;;;26.06;70.01
48790;BME280;41718;51.980;5.734;2023-06-14T09:47:32;101501.69;;;25.79;70.95
48790;BME280;41718;51.980;5.734;2023-06-14T09:52:34;101496.69;;;25.70;69.51
48790;BME280;41718;51.980;5.734;2023-06-14T09:57:37;101498.97;;;25.80;68.67
48790;BME280;41718;51.980;5.734;2023-06-14T10:02:43;101500.66;;;25.58;69.40
48790;BME280;41718;51.980;5.734;2023-06-14T10:08:05;101491.41;;;25.21;69.42
48790;BME280;41718;51.980;5.734;2023-06-14T10:13:09;101487.00;;;26.15;69.44
48790;BME280;41718;51.980;5.734;2023-06-14T10:18:24;101484.16;;;26.64;69.46
48790;BME280;41718;51.980;5.734;2023-06-14T10:23:30;101495.19;;;26.75;69.19
48790;BME280;41718;51.980;5.734;2023-06-14T10:28:37;101497.38;;;25.51;69.89
48790;BME280;41718;51.980;5.734;2023-06-14T10:33:55;101489.16;;;26.28;69.96
48790;BME280;41718;51.980;5.734;2023-06-14T10:38:58;101487.13;;;26.12;69.40
48790;BME280;41718;51.980;5.734;2023-06-14T10:49:40;101491.38;;;26.38;67.89
48790;BME280;41718;51.980;5.734;2023-06-14T10:54:59;101485.03;;;25.99;67.19
48790;BME280;41718;51.980;5.734;2023-06-14T11:00:03;101483.59;;;26.34;67.96
48790;BME280;41718;51.980;5.734;2023-06-14T11:05:23;101488.09;;;26.76;65.81
48790;BME280;41718;51.980;5.734;2023-06-14T11:10:37;101483.22;;;27.06;65.48
48790;BME280;41718;51.980;5.734;2023-06-14T11:15:46;101481.31;;;26.68;65.96
48790;BME280;41718;51.980;5.734;2023-06-14T11:20:50;101487.69;;;26.85;66.04
48790;BME280;41718;51.980;5.734;2023-06-14T11:25:52;101492.63;;;26.52;65.16
48790;BME280;41718;51.980;5.734;2023-06-14T11:31:01;101482.28;;;26.46;65.23
48790;BME280;41718;51.980;5.734;2023-06-14T11:36:04;101471.19;;;26.12;65.91
48790;BME280;41718;51.980;5.734;2023-06-14T11:41:14;101483.00;;;26.27;64.06
48790;BME280;41718;51.980;5.734;2023-06-14T11:46:16;101474.13;;;25.83;64.02
48790;BME280;41718;51.980;5.734;2023-06-14T11:51:19;101471.97;;;26.80;64.56
48790;BME280;41718;51.980;5.734;2023-06-14T11:56:22;101482.66;;;26.99;64.74
48790;BME280;41718;51.980;5.734;2023-06-14T12:01:23;101481.19;;;26.28;64.69
48790;BME280;41718;51.980;5.734;2023-06-14T12:06:26;101477.47;;;26.55;64.28
48790;BME280;41718;51.980;5.734;2023-06-14T12:11:36;101474.41;;;26.85;66.29
48790;BME280;41718;51.980;5.734;2023-06-14T12:16:39;101475.56;;;27.20;69.37
48790;BME280;41718;51.980;5.734;2023-06-14T12:21:46;101478.16;;;26.37;68.76
48790;BME280;41718;51.980;5.734;2023-06-14T12:26:51;101489.66;;;26.59;67.34
48790;BME280;41718;51.980;5.734;2023-06-14T12:31:54;101481.06;;;26.95;66.93
48790;BME280;41718;51.980;5.734;2023-06-14T12:36:58;101487.38;;;26.28;65.86
48790;BME280;41718;51.980;5.734;2023-06-14T12:41:59;101490.13;;;26.69;64.44
48790;BME280;41718;51.980;5.734;2023-06-14T12:47:01;101486.47;;;27.14;64.83
48790;BME280;41718;51.980;5.734;2023-06-14T12:52:03;101493.59;;;26.71;64.71
48790;BME280;41718;51.980;5.734;2023-06-14T12:57:05;101490.75;;;26.96;65.69
48790;BME280;41718;51.980;5.734;2023-06-14T13:02:25;101490.22;;;26.46;65.16
48790;BME280;41718;51.980;5.734;2023-06-14T13:07:27;101485.56;;;26.93;65.86
48790;BME280;41718;51.980;5.734;2023-06-14T13:12:28;101489.28;;;26.68;65.25
48790;BME280;41718;51.980;5.734;2023-06-14T13:17:30;101494.66;;;26.23;66.96
48790;BME280;41718;51.980;5.734;2023-06-14T13:22:34;101490.38;;;26.19;67.26
48790;BME280;41718;51.980;5.734;2023-06-14T13:27:36;101508.13;;;26.62;66.67
48790;BME280;41718;51.980;5.734;2023-06-14T13:32:38;101501.41;;;26.08;66.43
48790;BME280;41718;51.980;5.734;2023-06-14T13:37:39;101502.63;;;25.78;67.09
48790;BME280;41718;51.980;5.734;2023-06-14T13:42:46;101500.63;;;26.28;68.79
48790;BME280;41718;51.980;5.734;2023-06-14T13:47:48;101488.72;;;25.70;65.55
48790;BME280;41718;51.980;5.734;2023-06-14T13:52:50;101482.66;;;26.13;64.63
48790;BME280;41718;51.980;5.734;2023-06-14T13:57:51;101494.53;;;25.81;66.89
48790;BME280;41718;51.980;5.734;2023-06-14T14:02:53;101486.81;;;26.20;66.97
48790;BME280;41718;51.980;5.734;2023-06-14T14:07:56;101474.31;;;25.78;66.59
48790;BME280;41718;51.980;5.734;2023-06-14T14:12:58;101474.66;;;25.93;65.75
48790;BME280;41718;51.980;5.734;2023-06-14T14:18:01;101474.44;;;25.27;67.03
48790;BME280;41718;51.980;5.734;2023-06-14T14:23:05;101483.00;;;25.58;69.25
48790;BME280;41718;51.980;5.734;2023-06-14T14:28:06;101484.19;;;25.50;66.99
48790;BME280;41718;51.980;5.734;2023-06-14T14:33:11;101468.81;;;25.36;68.83
48790;BME280;41718;51.980;5.734;2023-06-14T14:38:17;101466.88;;;25.64;68.49
48790;BME280;41718;51.980;5.734;2023-06-14T14:43:18;101482.31;;;25.53;68.57
48790;BME280;41718;51.980;5.734;2023-06-14T14:48:20;101475.88;;;25.35;70.08
48790;BME280;41718;51.980;5.734;2023-06-14T14:53:29;101470.31;;;25.18;68.72
48790;BME280;41718;51.980;5.734;2023-06-14T14:58:32;101465.94;;;25.17;67.57
48790;BME280;41718;51.980;5.734;2023-06-14T15:03:34;101470.63;;;25.34;64.90
48790;BME280;41718;51.980;5.734;2023-06-14T15:08:54;101477.94;;;25.02;64.71
48790;BME280;41718;51.980;5.734;2023-06-14T15:13:55;101469.31;;;25.22;65.66
48790;BME280;41718;51.980;5.734;2023-06-14T15:18:57;101475.09;;;25.08;68.01
48790;BME280;41718;51.980;5.734;2023-06-14T15:23:59;101478.50;;;25.37;69.31
48790;BME280;41718;51.980;5.734;2023-06-14T15:29:00;101477.31;;;24.94;67.67
48790;BME280;41718;51.980;5.734;2023-06-14T15:34:02;101469.94;;;25.04;67.17
48790;BME280;41718;51.980;5.734;2023-06-14T15:39:04;101474.69;;;24.94;68.22
48790;BME280;41718;51.980;5.734;2023-06-14T15:44:05;101477.03;;;24.77;67.74
48790;BME280;41718;51.980;5.734;2023-06-14T15:49:10;101473.25;;;24.59;68.37
48790;BME280;41718;51.980;5.734;2023-06-14T15:54:12;101472.22;;;24.63;69.29
48790;BME280;41718;51.980;5.734;2023-06-14T15:59:14;101474.31;;;24.80;69.79
48790;BME280;41718;51.980;5.734;2023-06-14T16:04:15;101477.97;;;24.49;71.68
48790;BME280;41718;51.980;5.734;2023-06-14T16:09:17;101482.47;;;24.72;71.31
48790;BME280;41718;51.980;5.734;2023-06-14T16:14:18;101475.00;;;24.85;70.38
48790;BME280;41718;51.980;5.734;2023-06-14T16:19:20;101460.94;;;24.58;69.43
48790;BME280;41718;51.980;5.734;2023-06-14T16:24:22;101472.47;;;24.82;72.12
48790;BME280;41718;51.980;5.734;2023-06-14T16:29:24;101465.88;;;24.69;70.15
48790;BME280;41718;51.980;5.734;2023-06-14T16:34:31;101468.16;;;24.79;66.03
48790;BME280;41718;51.980;5.734;2023-06-14T16:39:39;101471.31;;;25.16;68.44
48790;BME280;41718;51.980;5.734;2023-06-14T16:44:41;101468.16;;;25.29;69.10
48790;BME280;41718;51.980;5.734;2023-06-14T16:49:42;101467.81;;;25.38;66.64
48790;BME280;41718;51.980;5.734;2023-06-14T16:54:44;101469.63;;;25.38;65.88
48790;BME280;41718;51.980;5.734;2023-06-14T16:59:46;101471.97;;;25.46;67.42
48790;BME280;41718;51.980;5.734;2023-06-14T17:04:47;101474.13;;;25.36;68.64
48790;BME280;41718;51.980;5.734;2023-06-14T17:09:49;101486.78;;;25.01;69.63
48790;BME280;41718;51.980;5.734;2023-06-14T17:14:51;101494.72;;;25.28;70.23
48790;BME280;41718;51.980;5.734;2023-06-14T17:19:56;101483.41;;;25.23;70.06
48790;BME280;41718;51.980;5.734;2023-06-14T17:24:58;101496.63;;;24.98;69.81
48790;BME280;41718;51.980;5.734;2023-06-14T17:30:00;101492.16;;;25.50;68.91
48790;BME280;41718;51.980;5.734;2023-06-14T17:35:02;101497.38;;;25.01;70.25
48790;BME280;41718;51.980;5.734;2023-06-14T17:40:10;101505.16;;;24.81;70.93
48790;BME280;41718;51.980;5.734;2023-06-14T17:45:15;101509.88;;;24.98;71.10
48790;BME280;41718;51.980;5.734;2023-06-14T17:50:17;101515.63;;;25.10;71.58
48790;BME280;41718;51.980;5.734;2023-06-14T17:55:19;101522.00;;;24.52;73.27
48790;BME280;41718;51.980;5.734;2023-06-14T18:00:21;101520.63;;;24.67;73.63
48790;BME280;41718;51.980;5.734;2023-06-14T18:05:24;101512.53;;;24.71;73.96
48790;BME280;41718;51.980;5.734;2023-06-14T18:10:27;101517.13;;;24.38;74.24
48790;BME280;41718;51.980;5.734;2023-06-14T18:15:28;101528.78;;;24.31;75.56
48790;BME280;41718;51.980;5.734;2023-06-14T18:20:32;101526.41;;;24.22;76.14
48790;BME280;41718;51.980;5.734;2023-06-14T18:25:33;101540.16;;;24.05;76.94
48790;BME280;41718;51.980;5.734;2023-06-14T18:30:35;101535.78;;;24.04;78.17
48790;BME280;41718;51.980;5.734;2023-06-14T18:35:37;101541.13;;;23.73;78.93
48790;BME280;41718;51.980;5.734;2023-06-14T18:40:42;101549.72;;;23.47;79.57
48790;BME280;41718;51.980;5.734;2023-06-14T18:45:50;101551.72;;;23.39;80.36
48790;BME280;41718;51.980;5.734;2023-06-14T18:51:16;101550.19;;;23.30;80.87
48790;BME280;41718;51.980;5.734;2023-06-14T18:56:20;101555.38;;;23.00;82.00
48790;BME280;41718;51.980;5.734;2023-06-14T19:01:24;101554.56;;;22.97;82.48
48790;BME280;41718;51.980;5.734;2023-06-14T19:06:49;101555.22;;;23.07;83.46
48790;BME280;41718;51.980;5.734;2023-06-14T19:12:06;101566.53;;;22.74;83.91
48790;BME280;41718;51.980;5.734;2023-06-14T19:17:20;101568.28;;;22.74;85.20
48790;BME280;41718;51.980;5.734;2023-06-14T19:22:25;101565.34;;;22.51;85.56
48790;BME280;41718;51.980;5.734;2023-06-14T19:27:29;101583.13;;;22.42;85.81
48790;BME280;41718;51.980;5.734;2023-06-14T19:32:41;101580.91;;;22.22;86.61
48790;BME280;41718;51.980;5.734;2023-06-14T19:37:46;101580.94;;;22.21;86.76
48790;BME280;41718;51.980;5.734;2023-06-14T19:42:48;101587.31;;;22.09;87.81
48790;BME280;41718;51.980;5.734;2023-06-14T19:47:52;101596.53;;;21.88;89.01
48790;BME280;41718;51.980;5.734;2023-06-14T19:53:08;101593.88;;;21.88;91.01
48790;BME280;41718;51.980;5.734;2023-06-14T19:58:10;101604.00;;;21.65;91.32
48790;BME280;41718;51.980;5.734;2023-06-14T20:03:16;101606.13;;;21.46;93.20
48790;BME280;41718;51.980;5.734;2023-06-14T20:08:19;101609.06;;;21.26;93.92
48790;BME280;41718;51.980;5.734;2023-06-14T20:13:28;101613.06;;;20.96;95.84
48790;BME280;41718;51.980;5.734;2023-06-14T20:18:30;101623.81;;;20.82;97.37
48790;BME280;41718;51.980;5.734;2023-06-14T20:23:33;101632.03;;;20.58;98.71
48790;BME280;41718;51.980;5.734;2023-06-14T20:28:47;101634.03;;;20.39;100.00
48790;BME280;41718;51.980;5.734;2023-06-14T20:33:51;101636.00;;;20.22;100.00
48790;BME280;41718;51.980;5.734;2023-06-14T20:39:17;101635.25;;;20.10;100.00
48790;BME280;41718;51.980;5.734;2023-06-14T20:44:20;101630.34;;;19.78;100.00
48790;BME280;41718;51.980;5.734;2023-06-14T20:49:28;101635.69;;;19.72;100.00
48790;BME280;41718;51.980;5.734;2023-06-14T20:54:38;101640.28;;;19.46;100.00
48790;BME280;41718;51.980;5.734;2023-06-14T20:59:46;101652.81;;;19.10;100.00
48790;BME280;41718;51.980;5.734;2023-06-14T21:04:48;101663.41;;;18.98;100.00
48790;BME280;41718;51.980;5.734;2023-06-14T21:10:00;101661.72;;;18.83;100.00
48790;BME280;41718;51.980;5.734;2023-06-14T21:15:13;101657.44;;;18.64;100.00
48790;BME280;41718;51.980;5.734;2023-06-14T21:20:16;101661.00;;;18.49;100.00
48790;BME280;41718;51.980;5.734;2023-06-14T21:25:22;101656.78;;;18.14;100.00
48790;BME280;41718;51.980;5.734;2023-06-14T21:30:31;101665.59;;;17.87;100.00
48790;BME280;41718;51.980;5.734;2023-06-14T21:35:40;101667.38;;;17.78;100.00
48790;BME280;41718;51.980;5.734;2023-06-14T21:40:44;101667.34;;;17.65;100.00
48790;BME280;41718;51.980;5.734;2023-06-14T21:45:48;101664.75;;;17.38;100.00
48790;BME280;41718;51.980;5.734;2023-06-14T21:50:54;101660.38;;;17.55;100.00
48790;BME280;41718;51.980;5.734;2023-06-14T21:56:03;101669.97;;;17.55;100.00
48790;BME280;41718;51.980;5.734;2023-06-14T22:01:07;101672.59;;;17.50;100.00
48790;BME280;41718;51.980;5.734;2023-06-14T22:06:09;101670.81;;;17.29;100.00
48790;BME280;41718;51.980;5.734;2023-06-14T22:11:15;101667.34;;;17.16;100.00
48790;BME280;41718;51.980;5.734;2023-06-14T22:16:18;101684.75;;;16.93;100.00
48790;BME280;41718;51.980;5.734;2023-06-14T22:21:23;101679.50;;;16.87;100.00
48790;BME280;41718;51.980;5.734;2023-06-14T22:26:29;101680.31;;;16.71;100.00
48790;BME280;41718;51.980;5.734;2023-06-14T22:31:41;101694.28;;;16.79;100.00
48790;BME280;41718;51.980;5.734;2023-06-14T22:36:43;101688.06;;;16.54;100.00
48790;BME280;41718;51.980;5.734;2023-06-14T22:41:52;101693.19;;;16.32;100.00
48790;BME280;41718;51.980;5.734;2023-06-14T22:46:57;101693.97;;;16.11;100.00
48790;BME280;41718;51.980;5.734;2023-06-14T22:52:03;101686.19;;;16.24;100.00
48790;BME280;41718;51.980;5.734;2023-06-14T22:57:06;101685.28;;;16.14;100.00
48790;BME280;41718;51.980;5.734;2023-06-14T23:02:09;101692.22;;;16.12;100.00
48790;BME280;41718;51.980;5.734;2023-06-14T23:07:16;101693.97;;;16.13;100.00
48790;BME280;41718;51.980;5.734;2023-06-14T23:12:23;101689.53;;;15.97;100.00
48790;BME280;41718;51.980;5.734;2023-06-14T23:17:36;101685.97;;;15.85;100.00
48790;BME280;41718;51.980;5.734;2023-06-14T23:22:48;101679.75;;;15.67;100.00
48790;BME280;41718;51.980;5.734;2023-06-14T23:27:54;101682.25;;;15.56;100.00
48790;BME280;41718;51.980;5.734;2023-06-14T23:32:57;101692.59;;;15.45;100.00
48790;BME280;41718;51.980;5.734;2023-06-14T23:38:02;101698.31;;;15.07;100.00
48790;BME280;41718;51.980;5.734;2023-06-14T23:43:05;101699.50;;;15.42;100.00
48790;BME280;41718;51.980;5.734;2023-06-14T23:48:12;101703.84;;;15.38;100.00
48790;BME280;41718;51.980;5.734;2023-06-14T23:53:14;101708.91;;;15.26;100.00
48790;BME280;41718;51.980;5.734;2023-06-14T23:58:15;101706.28;;;15.21;100.00
